sensor_id;sensor_type;location;lat;lon;timestamp;P1;durP1;ratioP1;P2;durP2;ratioP2
24173;SDS011;12324;48.146;11.502;2022-10-16T00:00:21;6.70;;;2.85;;
24173;SDS011;12324;48.146;11.502;2022-10-16T00:02:48;9.07;;;2.70;;
24173;SDS011;12324;48.146;11.502;2022-10-16T00:05:15;3.95;;;2.28;;
24173;SDS011;12324;48.146;11.502;2022-10-16T00:07:42;3.88;;;2.45;;
24173;SDS011;12324;48.146;11.502;2022-10-16T00:10:09;6.13;;;2.70;;
24173;SDS011;12324;48.146;11.502;2022-10-16T00:12:37;6.05;;;2.47;;
24173;SDS011;12324;48.146;11.502;2022-10-16T00:15:04;8.38;;;2.95;;
24173;SDS011;12324;48.146;11.502;2022-10-16T00:17:32;8.00;;;2.55;;
24173;SDS011;12324;48.146;11.502;2022-10-16T00:19:59;5.15;;;2.13;;
24173;SDS011;12324;48.146;11.502;2022-10-16T00:22:26;4.75;;;2.13;;
24173;SDS011;12324;48.146;11.502;2022-10-16T00:24:53;5.68;;;2.45;;
24173;SDS011;12324;48.146;11.502;2022-10-16T00:27:20;10.52;;;3.00;;
24173;SDS011;12324;48.146;11.502;2022-10-16T00:29:50;6.25;;;2.75;;
24173;SDS011;12324;48.146;11.502;2022-10-16T00:32:18;5.70;;;2.63;;
24173;SDS011;12324;48.146;11.502;2022-10-16T00:34:46;10.05;;;2.80;;
24173;SDS011;12324;48.146;11.502;2022-10-16T00:37:13;6.78;;;2.67;;
24173;SDS011;12324;48.146;11.502;2022-10-16T00:39:40;6.03;;;2.78;;
24173;SDS011;12324;48.146;11.502;2022-10-16T00:42:10;4.53;;;2.60;;
24173;SDS011;12324;48.146;11.502;2022-10-16T00:44:42;3.65;;;2.22;;
24173;SDS011;12324;48.146;11.502;2022-10-16T00:47:10;6.03;;;2.30;;
24173;SDS011;12324;48.146;11.502;2022-10-16T00:49:38;4.85;;;2.38;;
24173;SDS011;12324;48.146;11.502;2022-10-16T00:52:05;4.05;;;1.95;;
24173;SDS011;12324;48.146;11.502;2022-10-16T00:54:32;3.65;;;2.28;;
24173;SDS011;12324;48.146;11.502;2022-10-16T00:57:01;4.90;;;2.10;;
24173;SDS011;12324;48.146;11.502;2022-10-16T00:59:30;7.75;;;2.55;;
24173;SDS011;12324;48.146;11.502;2022-10-16T01:01:59;3.67;;;1.73;;
24173;SDS011;12324;48.146;11.502;2022-10-16T01:04:26;5.05;;;1.98;;
24173;SDS011;12324;48.146;11.502;2022-10-16T01:09:25;3.28;;;2.03;;
24173;SDS011;12324;48.146;11.502;2022-10-16T01:11:57;4.30;;;1.83;;
24173;SDS011;12324;48.146;11.502;2022-10-16T01:14:47;3.17;;;2.00;;
24173;SDS011;12324;48.146;11.502;2022-10-16T01:17:16;3.13;;;1.75;;
24173;SDS011;12324;48.146;11.502;2022-10-16T01:22:59;8.02;;;2.72;;
24173;SDS011;12324;48.146;11.502;2022-10-16T01:25:36;3.15;;;1.52;;
24173;SDS011;12324;48.146;11.502;2022-10-16T01:28:06;4.88;;;1.40;;
24173;SDS011;12324;48.146;11.502;2022-10-16T01:30:36;3.97;;;1.80;;
24173;SDS011;12324;48.146;11.502;2022-10-16T01:35:38;3.33;;;1.40;;
24173;SDS011;12324;48.146;11.502;2022-10-16T01:38:10;9.35;;;2.25;;
24173;SDS011;12324;48.146;11.502;2022-10-16T01:40:39;6.93;;;1.88;;
24173;SDS011;12324;48.146;11.502;2022-10-16T01:43:08;2.85;;;1.83;;
24173;SDS011;12324;48.146;11.502;2022-10-16T01:45:36;2.33;;;1.90;;
24173;SDS011;12324;48.146;11.502;2022-10-16T01:48:03;4.03;;;1.92;;
24173;SDS011;12324;48.146;11.502;2022-10-16T01:50:35;5.22;;;1.80;;
24173;SDS011;12324;48.146;11.502;2022-10-16T01:53:04;4.13;;;1.70;;
24173;SDS011;12324;48.146;11.502;2022-10-16T01:55:32;3.60;;;1.83;;
24173;SDS011;12324;48.146;11.502;2022-10-16T01:58:01;2.08;;;1.55;;
24173;SDS011;12324;48.146;11.502;2022-10-16T02:00:29;2.65;;;1.50;;
24173;SDS011;12324;48.146;11.502;2022-10-16T02:02:56;3.10;;;1.80;;
24173;SDS011;12324;48.146;11.502;2022-10-16T02:07:57;2.40;;;1.65;;
24173;SDS011;12324;48.146;11.502;2022-10-16T02:10:29;1.80;;;1.30;;
24173;SDS011;12324;48.146;11.502;2022-10-16T02:13:09;3.35;;;1.50;;
24173;SDS011;12324;48.146;11.502;2022-10-16T02:15:36;3.22;;;1.63;;
24173;SDS011;12324;48.146;11.502;2022-10-16T02:18:04;3.20;;;1.60;;
24173;SDS011;12324;48.146;11.502;2022-10-16T02:20:32;2.80;;;1.45;;
24173;SDS011;12324;48.146;11.502;2022-10-16T02:23:00;3.35;;;1.90;;
24173;SDS011;12324;48.146;11.502;2022-10-16T02:30:41;3.75;;;1.80;;
24173;SDS011;12324;48.146;11.502;2022-10-16T02:33:10;3.33;;;1.67;;
24173;SDS011;12324;48.146;11.502;2022-10-16T02:35:42;2.92;;;1.67;;
24173;SDS011;12324;48.146;11.502;2022-10-16T02:38:09;2.65;;;1.65;;
24173;SDS011;12324;48.146;11.502;2022-10-16T02:40:37;3.97;;;2.00;;
24173;SDS011;12324;48.146;11.502;2022-10-16T02:43:04;2.08;;;1.50;;
24173;SDS011;12324;48.146;11.502;2022-10-16T02:45:31;2.78;;;1.25;;
24173;SDS011;12324;48.146;11.502;2022-10-16T02:47:59;4.65;;;1.80;;
24173;SDS011;12324;48.146;11.502;2022-10-16T02:50:26;1.95;;;1.50;;
24173;SDS011;12324;48.146;11.502;2022-10-16T02:52:53;2.00;;;1.27;;
24173;SDS011;12324;48.146;11.502;2022-10-16T02:55:20;4.68;;;1.40;;
24173;SDS011;12324;48.146;11.502;2022-10-16T02:57:47;5.43;;;1.70;;
24173;SDS011;12324;48.146;11.502;2022-10-16T03:00:15;2.15;;;1.60;;
24173;SDS011;12324;48.146;11.502;2022-10-16T03:02:42;4.03;;;1.77;;
24173;SDS011;12324;48.146;11.502;2022-10-16T03:05:10;3.92;;;1.70;;
24173;SDS011;12324;48.146;11.502;2022-10-16T03:07:37;2.80;;;1.40;;
24173;SDS011;12324;48.146;11.502;2022-10-16T03:10:05;1.23;;;1.13;;
24173;SDS011;12324;48.146;11.502;2022-10-16T03:12:32;4.82;;;1.52;;
24173;SDS011;12324;48.146;11.502;2022-10-16T03:14:59;2.42;;;1.60;;
24173;SDS011;12324;48.146;11.502;2022-10-16T03:17:26;7.97;;;2.70;;
24173;SDS011;12324;48.146;11.502;2022-10-16T03:19:54;3.03;;;1.38;;
24173;SDS011;12324;48.146;11.502;2022-10-16T03:22:21;5.38;;;1.45;;
24173;SDS011;12324;48.146;11.502;2022-10-16T03:24:48;3.25;;;1.90;;
24173;SDS011;12324;48.146;11.502;2022-10-16T03:27:15;5.65;;;2.38;;
24173;SDS011;12324;48.146;11.502;2022-10-16T03:29:42;4.32;;;1.88;;
24173;SDS011;12324;48.146;11.502;2022-10-16T03:32:09;1.55;;;1.40;;
24173;SDS011;12324;48.146;11.502;2022-10-16T03:34:36;1.55;;;1.30;;
24173;SDS011;12324;48.146;11.502;2022-10-16T03:37:03;5.43;;;1.90;;
24173;SDS011;12324;48.146;11.502;2022-10-16T03:39:30;3.55;;;1.63;;
24173;SDS011;12324;48.146;11.502;2022-10-16T03:41:57;5.18;;;1.67;;
24173;SDS011;12324;48.146;11.502;2022-10-16T03:44:25;2.65;;;1.40;;
24173;SDS011;12324;48.146;11.502;2022-10-16T03:46:52;2.40;;;1.52;;
24173;SDS011;12324;48.146;11.502;2022-10-16T03:49:19;2.80;;;1.63;;
24173;SDS011;12324;48.146;11.502;2022-10-16T03:51:46;2.13;;;1.40;;
24173;SDS011;12324;48.146;11.502;2022-10-16T03:54:13;2.03;;;1.70;;
24173;SDS011;12324;48.146;11.502;2022-10-16T03:56:40;3.33;;;1.65;;
24173;SDS011;12324;48.146;11.502;2022-10-16T03:59:07;2.33;;;1.40;;
24173;SDS011;12324;48.146;11.502;2022-10-16T04:01:34;3.75;;;1.60;;
24173;SDS011;12324;48.146;11.502;2022-10-16T04:04:01;2.53;;;1.50;;
24173;SDS011;12324;48.146;11.502;2022-10-16T04:06:28;2.97;;;1.83;;
24173;SDS011;12324;48.146;11.502;2022-10-16T04:08:55;2.60;;;1.67;;
24173;SDS011;12324;48.146;11.502;2022-10-16T04:11:22;2.65;;;1.42;;
24173;SDS011;12324;48.146;11.502;2022-10-16T04:13:49;2.88;;;1.55;;
24173;SDS011;12324;48.146;11.502;2022-10-16T04:16:16;8.35;;;2.00;;
24173;SDS011;12324;48.146;11.502;2022-10-16T04:18:43;1.83;;;1.45;;
24173;SDS011;12324;48.146;11.502;2022-10-16T04:21:10;5.85;;;2.00;;
24173;SDS011;12324;48.146;11.502;2022-10-16T04:23:37;3.17;;;1.85;;
24173;SDS011;12324;48.146;11.502;2022-10-16T04:26:05;1.67;;;1.25;;
24173;SDS011;12324;48.146;11.502;2022-10-16T04:28:32;3.95;;;1.77;;
24173;SDS011;12324;48.146;11.502;2022-10-16T04:30:59;3.40;;;1.45;;
24173;SDS011;12324;48.146;11.502;2022-10-16T04:33:26;2.55;;;1.77;;
24173;SDS011;12324;48.146;11.502;2022-10-16T04:35:59;5.47;;;2.15;;
24173;SDS011;12324;48.146;11.502;2022-10-16T04:38:27;5.32;;;1.63;;
24173;SDS011;12324;48.146;11.502;2022-10-16T04:40:54;1.92;;;1.50;;
24173;SDS011;12324;48.146;11.502;2022-10-16T04:43:21;3.63;;;1.48;;
24173;SDS011;12324;48.146;11.502;2022-10-16T04:45:48;2.13;;;1.30;;
24173;SDS011;12324;48.146;11.502;2022-10-16T04:48:17;2.97;;;1.48;;
24173;SDS011;12324;48.146;11.502;2022-10-16T04:50:44;3.03;;;1.80;;
24173;SDS011;12324;48.146;11.502;2022-10-16T04:53:14;2.50;;;1.40;;
24173;SDS011;12324;48.146;11.502;2022-10-16T04:55:41;4.10;;;1.80;;
24173;SDS011;12324;48.146;11.502;2022-10-16T04:58:08;4.38;;;1.67;;
24173;SDS011;12324;48.146;11.502;2022-10-16T05:00:35;2.42;;;1.40;;
24173;SDS011;12324;48.146;11.502;2022-10-16T05:03:04;5.22;;;2.40;;
24173;SDS011;12324;48.146;11.502;2022-10-16T05:05:34;3.53;;;1.80;;
24173;SDS011;12324;48.146;11.502;2022-10-16T05:08:02;5.82;;;2.35;;
24173;SDS011;12324;48.146;11.502;2022-10-16T05:10:30;3.55;;;1.55;;
24173;SDS011;12324;48.146;11.502;2022-10-16T05:12:57;3.00;;;1.77;;
24173;SDS011;12324;48.146;11.502;2022-10-16T05:15:24;3.70;;;1.88;;
24173;SDS011;12324;48.146;11.502;2022-10-16T05:17:54;6.13;;;1.90;;
24173;SDS011;12324;48.146;11.502;2022-10-16T05:20:21;4.03;;;1.90;;
24173;SDS011;12324;48.146;11.502;2022-10-16T05:22:48;4.78;;;2.13;;
24173;SDS011;12324;48.146;11.502;2022-10-16T05:25:15;3.35;;;2.00;;
24173;SDS011;12324;48.146;11.502;2022-10-16T05:27:42;5.68;;;2.10;;
24173;SDS011;12324;48.146;11.502;2022-10-16T05:30:10;2.25;;;1.40;;
24173;SDS011;12324;48.146;11.502;2022-10-16T05:32:37;3.28;;;1.60;;
24173;SDS011;12324;48.146;11.502;2022-10-16T05:35:04;6.65;;;2.35;;
24173;SDS011;12324;48.146;11.502;2022-10-16T05:37:37;5.22;;;1.95;;
24173;SDS011;12324;48.146;11.502;2022-10-16T05:40:05;3.58;;;2.00;;
24173;SDS011;12324;48.146;11.502;2022-10-16T05:42:32;3.90;;;1.65;;
24173;SDS011;12324;48.146;11.502;2022-10-16T05:44:59;2.13;;;1.60;;
24173;SDS011;12324;48.146;11.502;2022-10-16T05:47:26;2.97;;;1.65;;
24173;SDS011;12324;48.146;11.502;2022-10-16T05:49:54;3.90;;;2.10;;
24173;SDS011;12324;48.146;11.502;2022-10-16T05:52:22;4.45;;;2.17;;
24173;SDS011;12324;48.146;11.502;2022-10-16T05:54:49;3.10;;;2.00;;
24173;SDS011;12324;48.146;11.502;2022-10-16T05:57:16;3.55;;;2.13;;
24173;SDS011;12324;48.146;11.502;2022-10-16T05:59:43;3.20;;;1.63;;
24173;SDS011;12324;48.146;11.502;2022-10-16T06:02:11;3.92;;;1.90;;
24173;SDS011;12324;48.146;11.502;2022-10-16T06:04:39;3.65;;;1.67;;
24173;SDS011;12324;48.146;11.502;2022-10-16T06:07:06;4.10;;;2.33;;
24173;SDS011;12324;48.146;11.502;2022-10-16T06:09:33;3.30;;;1.90;;
24173;SDS011;12324;48.146;11.502;2022-10-16T06:12:01;4.88;;;2.00;;
24173;SDS011;12324;48.146;11.502;2022-10-16T06:14:27;4.88;;;2.50;;
24173;SDS011;12324;48.146;11.502;2022-10-16T06:16:55;3.67;;;1.80;;
24173;SDS011;12324;48.146;11.502;2022-10-16T06:19:22;4.57;;;2.35;;
24173;SDS011;12324;48.146;11.502;2022-10-16T06:21:49;5.50;;;2.08;;
24173;SDS011;12324;48.146;11.502;2022-10-16T06:24:16;3.83;;;2.20;;
24173;SDS011;12324;48.146;11.502;2022-10-16T06:26:43;4.25;;;1.92;;
24173;SDS011;12324;48.146;11.502;2022-10-16T06:29:10;2.95;;;1.75;;
24173;SDS011;12324;48.146;11.502;2022-10-16T06:31:37;4.22;;;2.20;;
24173;SDS011;12324;48.146;11.502;2022-10-16T06:34:04;5.80;;;2.28;;
24173;SDS011;12324;48.146;11.502;2022-10-16T06:36:35;4.15;;;1.90;;
24173;SDS011;12324;48.146;11.502;2022-10-16T06:39:02;2.45;;;1.88;;
24173;SDS011;12324;48.146;11.502;2022-10-16T06:41:29;2.70;;;1.98;;
24173;SDS011;12324;48.146;11.502;2022-10-16T06:43:57;6.82;;;2.20;;
24173;SDS011;12324;48.146;11.502;2022-10-16T06:46:24;4.05;;;1.85;;
24173;SDS011;12324;48.146;11.502;2022-10-16T06:48:52;2.92;;;2.08;;
24173;SDS011;12324;48.146;11.502;2022-10-16T06:51:20;3.88;;;2.00;;
24173;SDS011;12324;48.146;11.502;2022-10-16T06:53:49;4.30;;;2.00;;
24173;SDS011;12324;48.146;11.502;2022-10-16T06:58:58;4.45;;;2.38;;
24173;SDS011;12324;48.146;11.502;2022-10-16T07:01:26;5.50;;;2.25;;
24173;SDS011;12324;48.146;11.502;2022-10-16T07:03:53;4.85;;;2.05;;
24173;SDS011;12324;48.146;11.502;2022-10-16T07:06:21;4.88;;;2.30;;
24173;SDS011;12324;48.146;11.502;2022-10-16T07:08:48;6.28;;;2.67;;
24173;SDS011;12324;48.146;11.502;2022-10-16T07:11:17;5.88;;;2.67;;
24173;SDS011;12324;48.146;11.502;2022-10-16T07:13:44;6.82;;;2.75;;
24173;SDS011;12324;48.146;11.502;2022-10-16T07:16:20;4.93;;;2.30;;
24173;SDS011;12324;48.146;11.502;2022-10-16T07:18:47;5.38;;;2.40;;
24173;SDS011;12324;48.146;11.502;2022-10-16T07:21:16;5.07;;;2.83;;
24173;SDS011;12324;48.146;11.502;2022-10-16T07:23:43;5.55;;;2.33;;
24173;SDS011;12324;48.146;11.502;2022-10-16T07:26:11;5.47;;;2.40;;
24173;SDS011;12324;48.146;11.502;2022-10-16T07:28:38;4.75;;;2.47;;
24173;SDS011;12324;48.146;11.502;2022-10-16T07:31:06;6.25;;;2.20;;
24173;SDS011;12324;48.146;11.502;2022-10-16T07:33:34;4.93;;;2.40;;
24173;SDS011;12324;48.146;11.502;2022-10-16T07:36:01;3.72;;;1.98;;
24173;SDS011;12324;48.146;11.502;2022-10-16T07:38:28;5.25;;;2.55;;
24173;SDS011;12324;48.146;11.502;2022-10-16T07:40:56;3.00;;;1.95;;
24173;SDS011;12324;48.146;11.502;2022-10-16T07:43:24;4.40;;;2.17;;
24173;SDS011;12324;48.146;11.502;2022-10-16T07:45:51;5.45;;;2.40;;
24173;SDS011;12324;48.146;11.502;2022-10-16T07:48:18;4.05;;;1.90;;
24173;SDS011;12324;48.146;11.502;2022-10-16T07:50:46;6.60;;;2.13;;
24173;SDS011;12324;48.146;11.502;2022-10-16T07:53:13;6.15;;;2.53;;
24173;SDS011;12324;48.146;11.502;2022-10-16T07:55:40;4.35;;;2.15;;
24173;SDS011;12324;48.146;11.502;2022-10-16T07:58:07;4.03;;;2.03;;
24173;SDS011;12324;48.146;11.502;2022-10-16T08:00:35;14.63;;;2.63;;
24173;SDS011;12324;48.146;11.502;2022-10-16T08:03:02;3.63;;;1.90;;
24173;SDS011;12324;48.146;11.502;2022-10-16T08:05:30;6.07;;;2.08;;
24173;SDS011;12324;48.146;11.502;2022-10-16T08:07:57;4.15;;;1.95;;
24173;SDS011;12324;48.146;11.502;2022-10-16T08:10:26;3.40;;;1.95;;
24173;SDS011;12324;48.146;11.502;2022-10-16T08:12:53;4.55;;;2.33;;
24173;SDS011;12324;48.146;11.502;2022-10-16T08:15:20;7.18;;;2.72;;
24173;SDS011;12324;48.146;11.502;2022-10-16T08:17:54;3.55;;;2.20;;
24173;SDS011;12324;48.146;11.502;2022-10-16T08:20:21;4.97;;;2.35;;
24173;SDS011;12324;48.146;11.502;2022-10-16T08:22:48;4.68;;;2.83;;
24173;SDS011;12324;48.146;11.502;2022-10-16T08:25:15;3.22;;;2.05;;
24173;SDS011;12324;48.146;11.502;2022-10-16T08:27:42;6.05;;;2.55;;
24173;SDS011;12324;48.146;11.502;2022-10-16T08:30:10;5.45;;;2.35;;
24173;SDS011;12324;48.146;11.502;2022-10-16T08:32:38;3.33;;;1.67;;
24173;SDS011;12324;48.146;11.502;2022-10-16T08:35:05;5.00;;;2.35;;
24173;SDS011;12324;48.146;11.502;2022-10-16T08:37:33;3.72;;;2.00;;
24173;SDS011;12324;48.146;11.502;2022-10-16T08:40:00;4.65;;;1.88;;
24173;SDS011;12324;48.146;11.502;2022-10-16T08:42:33;4.25;;;2.10;;
24173;SDS011;12324;48.146;11.502;2022-10-16T08:45:25;2.17;;;1.40;;
24173;SDS011;12324;48.146;11.502;2022-10-16T08:48:06;2.78;;;1.90;;
24173;SDS011;12324;48.146;11.502;2022-10-16T08:50:36;3.55;;;1.85;;
24173;SDS011;12324;48.146;11.502;2022-10-16T08:53:05;4.03;;;1.90;;
24173;SDS011;12324;48.146;11.502;2022-10-16T08:55:33;5.22;;;2.35;;
24173;SDS011;12324;48.146;11.502;2022-10-16T08:58:13;2.28;;;1.65;;
24173;SDS011;12324;48.146;11.502;2022-10-16T09:00:41;4.50;;;2.30;;
24173;SDS011;12324;48.146;11.502;2022-10-16T09:10:51;4.07;;;1.83;;
24173;SDS011;12324;48.146;11.502;2022-10-16T09:18:52;3.15;;;1.63;;
24173;SDS011;12324;48.146;11.502;2022-10-16T09:21:22;4.68;;;1.95;;
24173;SDS011;12324;48.146;11.502;2022-10-16T09:23:50;3.63;;;1.90;;
24173;SDS011;12324;48.146;11.502;2022-10-16T09:26:17;3.05;;;1.80;;
24173;SDS011;12324;48.146;11.502;2022-10-16T09:28:45;2.17;;;1.65;;
24173;SDS011;12324;48.146;11.502;2022-10-16T09:31:16;4.03;;;1.70;;
24173;SDS011;12324;48.146;11.502;2022-10-16T09:33:44;3.47;;;1.80;;
24173;SDS011;12324;48.146;11.502;2022-10-16T09:36:12;2.80;;;1.58;;
24173;SDS011;12324;48.146;11.502;2022-10-16T09:38:40;4.22;;;2.35;;
24173;SDS011;12324;48.146;11.502;2022-10-16T09:41:13;3.90;;;2.20;;
24173;SDS011;12324;48.146;11.502;2022-10-16T09:43:46;3.22;;;1.88;;
24173;SDS011;12324;48.146;11.502;2022-10-16T09:48:49;4.82;;;2.10;;
24173;SDS011;12324;48.146;11.502;2022-10-16T09:51:50;4.03;;;1.90;;
24173;SDS011;12324;48.146;11.502;2022-10-16T09:56:36;3.70;;;1.75;;
24173;SDS011;12324;48.146;11.502;2022-10-16T09:59:14;3.60;;;1.95;;
24173;SDS011;12324;48.146;11.502;2022-10-16T10:01:49;1.88;;;1.67;;
24173;SDS011;12324;48.146;11.502;2022-10-16T10:04:20;3.70;;;2.00;;
24173;SDS011;12324;48.146;11.502;2022-10-16T10:09:22;3.72;;;1.50;;
24173;SDS011;12324;48.146;11.502;2022-10-16T10:11:54;3.40;;;1.88;;
24173;SDS011;12324;48.146;11.502;2022-10-16T10:16:50;5.63;;;1.65;;
24173;SDS011;12324;48.146;11.502;2022-10-16T10:19:19;2.38;;;1.70;;
24173;SDS011;12324;48.146;11.502;2022-10-16T10:21:46;3.25;;;1.90;;
24173;SDS011;12324;48.146;11.502;2022-10-16T10:24:14;13.85;;;7.00;;
24173;SDS011;12324;48.146;11.502;2022-10-16T10:26:44;3.92;;;1.75;;
24173;SDS011;12324;48.146;11.502;2022-10-16T10:29:17;3.92;;;2.10;;
24173;SDS011;12324;48.146;11.502;2022-10-16T10:36:43;4.15;;;2.55;;
24173;SDS011;12324;48.146;11.502;2022-10-16T10:41:44;2.22;;;1.42;;
24173;SDS011;12324;48.146;11.502;2022-10-16T10:47:19;4.07;;;1.85;;
24173;SDS011;12324;48.146;11.502;2022-10-16T11:05:57;1.77;;;1.35;;
24173;SDS011;12324;48.146;11.502;2022-10-16T11:10:58;2.67;;;1.73;;
24173;SDS011;12324;48.146;11.502;2022-10-16T11:15:59;1.87;;;1.40;;
24173;SDS011;12324;48.146;11.502;2022-10-16T11:18:30;1.75;;;1.27;;
24173;SDS011;12324;48.146;11.502;2022-10-16T11:21:03;2.50;;;1.52;;
24173;SDS011;12324;48.146;11.502;2022-10-16T11:23:36;2.75;;;1.63;;
24173;SDS011;12324;48.146;11.502;2022-10-16T11:26:08;1.58;;;1.23;;
24173;SDS011;12324;48.146;11.502;2022-10-16T11:34:22;1.40;;;1.15;;
24173;SDS011;12324;48.146;11.502;2022-10-16T11:36:58;1.80;;;0.93;;
24173;SDS011;12324;48.146;11.502;2022-10-16T11:39:28;1.90;;;1.35;;
24173;SDS011;12324;48.146;11.502;2022-10-16T11:42:01;1.35;;;0.90;;
24173;SDS011;12324;48.146;11.502;2022-10-16T11:52:46;1.63;;;1.25;;
24173;SDS011;12324;48.146;11.502;2022-10-16T11:55:18;1.17;;;0.95;;
24173;SDS011;12324;48.146;11.502;2022-10-16T11:57:54;1.55;;;1.10;;
24173;SDS011;12324;48.146;11.502;2022-10-16T12:00:24;2.50;;;1.40;;
24173;SDS011;12324;48.146;11.502;2022-10-16T12:03:39;2.28;;;1.33;;
24173;SDS011;12324;48.146;11.502;2022-10-16T12:06:00;2.45;;;1.40;;
24173;SDS011;12324;48.146;11.502;2022-10-16T12:08:28;2.40;;;1.35;;
24173;SDS011;12324;48.146;11.502;2022-10-16T12:11:05;2.70;;;1.40;;
24173;SDS011;12324;48.146;11.502;2022-10-16T12:18:33;1.83;;;1.10;;
24173;SDS011;12324;48.146;11.502;2022-10-16T12:21:00;1.27;;;1.17;;
24173;SDS011;12324;48.146;11.502;2022-10-16T12:23:53;2.80;;;1.27;;
24173;SDS011;12324;48.146;11.502;2022-10-16T12:26:31;1.33;;;1.23;;
24173;SDS011;12324;48.146;11.502;2022-10-16T12:31:46;1.35;;;1.20;;
24173;SDS011;12324;48.146;11.502;2022-10-16T12:34:29;2.05;;;1.42;;
24173;SDS011;12324;48.146;11.502;2022-10-16T12:37:07;2.58;;;1.42;;
24173;SDS011;12324;48.146;11.502;2022-10-16T12:39:35;1.60;;;1.05;;
24173;SDS011;12324;48.146;11.502;2022-10-16T12:42:05;1.92;;;1.17;;
24173;SDS011;12324;48.146;11.502;2022-10-16T12:44:35;3.10;;;1.23;;
24173;SDS011;12324;48.146;11.502;2022-10-16T12:47:02;1.67;;;1.48;;
24173;SDS011;12324;48.146;11.502;2022-10-16T12:49:36;2.97;;;1.17;;
24173;SDS011;12324;48.146;11.502;2022-10-16T12:52:03;1.35;;;0.93;;
24173;SDS011;12324;48.146;11.502;2022-10-16T12:54:34;2.05;;;1.00;;
24173;SDS011;12324;48.146;11.502;2022-10-16T12:57:12;1.15;;;0.95;;
24173;SDS011;12324;48.146;11.502;2022-10-16T12:59:51;1.02;;;0.93;;
24173;SDS011;12324;48.146;11.502;2022-10-16T13:07:32;0.73;;;0.68;;
24173;SDS011;12324;48.146;11.502;2022-10-16T13:10:05;0.60;;;0.60;;
24173;SDS011;12324;48.146;11.502;2022-10-16T13:12:46;1.52;;;1.20;;
24173;SDS011;12324;48.146;11.502;2022-10-16T13:17:47;4.28;;;0.93;;
24173;SDS011;12324;48.146;11.502;2022-10-16T13:23:05;2.78;;;1.25;;
24173;SDS011;12324;48.146;11.502;2022-10-16T13:28:14;1.83;;;0.80;;
24173;SDS011;12324;48.146;11.502;2022-10-16T13:30:43;2.13;;;1.17;;
24173;SDS011;12324;48.146;11.502;2022-10-16T13:35:48;1.48;;;1.00;;
24173;SDS011;12324;48.146;11.502;2022-10-16T13:38:20;1.55;;;1.08;;
24173;SDS011;12324;48.146;11.502;2022-10-16T13:40:58;0.80;;;0.80;;
24173;SDS011;12324;48.146;11.502;2022-10-16T13:43:37;3.65;;;0.80;;
24173;SDS011;12324;48.146;11.502;2022-10-16T13:46:07;2.15;;;0.90;;
24173;SDS011;12324;48.146;11.502;2022-10-16T13:48:38;1.00;;;0.80;;
24173;SDS011;12324;48.146;11.502;2022-10-16T13:51:06;0.80;;;0.80;;
24173;SDS011;12324;48.146;11.502;2022-10-16T13:53:37;1.63;;;1.00;;
24173;SDS011;12324;48.146;11.502;2022-10-16T13:56:05;1.23;;;0.77;;
24173;SDS011;12324;48.146;11.502;2022-10-16T13:58:35;1.50;;;0.82;;
24173;SDS011;12324;48.146;11.502;2022-10-16T14:01:15;0.73;;;0.73;;
24173;SDS011;12324;48.146;11.502;2022-10-16T14:03:52;2.05;;;0.82;;
24173;SDS011;12324;48.146;11.502;2022-10-16T14:06:20;0.70;;;0.68;;
24173;SDS011;12324;48.146;11.502;2022-10-16T14:08:56;0.98;;;0.88;;
24173;SDS011;12324;48.146;11.502;2022-10-16T14:11:25;1.52;;;0.90;;
24173;SDS011;12324;48.146;11.502;2022-10-16T14:13:53;1.00;;;0.98;;
24173;SDS011;12324;48.146;11.502;2022-10-16T14:16:21;1.42;;;0.98;;
24173;SDS011;12324;48.146;11.502;2022-10-16T14:18:59;1.00;;;0.90;;
24173;SDS011;12324;48.146;11.502;2022-10-16T14:21:26;2.65;;;1.10;;
24173;SDS011;12324;48.146;11.502;2022-10-16T14:23:54;2.03;;;1.10;;
24173;SDS011;12324;48.146;11.502;2022-10-16T14:26:22;2.05;;;1.20;;
24173;SDS011;12324;48.146;11.502;2022-10-16T14:29:01;3.03;;;0.93;;
24173;SDS011;12324;48.146;11.502;2022-10-16T14:31:33;1.00;;;0.90;;
24173;SDS011;12324;48.146;11.502;2022-10-16T14:34:02;2.42;;;1.05;;
24173;SDS011;12324;48.146;11.502;2022-10-16T14:36:30;2.88;;;1.55;;
24173;SDS011;12324;48.146;11.502;2022-10-16T14:41:24;0.80;;;0.70;;
24173;SDS011;12324;48.146;11.502;2022-10-16T14:43:52;1.92;;;1.10;;
24173;SDS011;12324;48.146;11.502;2022-10-16T14:46:21;1.92;;;0.73;;
24173;SDS011;12324;48.146;11.502;2022-10-16T14:48:59;1.45;;;1.10;;
24173;SDS011;12324;48.146;11.502;2022-10-16T14:51:41;2.25;;;0.90;;
24173;SDS011;12324;48.146;11.502;2022-10-16T14:54:11;0.93;;;0.85;;
24173;SDS011;12324;48.146;11.502;2022-10-16T14:59:15;0.90;;;0.90;;
24173;SDS011;12324;48.146;11.502;2022-10-16T15:02:06;1.25;;;0.98;;
24173;SDS011;12324;48.146;11.502;2022-10-16T15:04:44;1.70;;;1.10;;
24173;SDS011;12324;48.146;11.502;2022-10-16T15:07:11;2.22;;;0.95;;
24173;SDS011;12324;48.146;11.502;2022-10-16T15:09:38;2.95;;;1.30;;
24173;SDS011;12324;48.146;11.502;2022-10-16T15:12:10;4.65;;;1.17;;
24173;SDS011;12324;48.146;11.502;2022-10-16T15:14:37;1.33;;;1.10;;
24173;SDS011;12324;48.146;11.502;2022-10-16T15:17:04;0.77;;;0.77;;
24173;SDS011;12324;48.146;11.502;2022-10-16T15:19:31;1.20;;;1.02;;
24173;SDS011;12324;48.146;11.502;2022-10-16T15:21:58;2.22;;;0.82;;
24173;SDS011;12324;48.146;11.502;2022-10-16T15:24:25;1.50;;;0.90;;
24173;SDS011;12324;48.146;11.502;2022-10-16T15:26:52;1.48;;;1.13;;
24173;SDS011;12324;48.146;11.502;2022-10-16T15:29:19;3.08;;;1.10;;
24173;SDS011;12324;48.146;11.502;2022-10-16T15:31:46;1.95;;;1.20;;
24173;SDS011;12324;48.146;11.502;2022-10-16T15:34:14;2.10;;;1.35;;
24173;SDS011;12324;48.146;11.502;2022-10-16T15:36:42;3.33;;;1.58;;
24173;SDS011;12324;48.146;11.502;2022-10-16T15:39:13;2.97;;;1.33;;
24173;SDS011;12324;48.146;11.502;2022-10-16T15:41:40;2.38;;;1.35;;
24173;SDS011;12324;48.146;11.502;2022-10-16T15:44:07;4.60;;;1.75;;
24173;SDS011;12324;48.146;11.502;2022-10-16T15:46:35;3.42;;;1.60;;
24173;SDS011;12324;48.146;11.502;2022-10-16T15:49:03;5.70;;;2.10;;
24173;SDS011;12324;48.146;11.502;2022-10-16T15:51:30;9.57;;;2.50;;
24173;SDS011;12324;48.146;11.502;2022-10-16T15:53:59;5.68;;;2.17;;
24173;SDS011;12324;48.146;11.502;2022-10-16T15:56:28;4.55;;;2.08;;
24173;SDS011;12324;48.146;11.502;2022-10-16T15:58:55;6.07;;;1.90;;
24173;SDS011;12324;48.146;11.502;2022-10-16T16:01:24;5.55;;;2.20;;
24173;SDS011;12324;48.146;11.502;2022-10-16T16:03:54;6.07;;;2.28;;
24173;SDS011;12324;48.146;11.502;2022-10-16T16:06:22;4.95;;;1.90;;
24173;SDS011;12324;48.146;11.502;2022-10-16T16:08:50;6.03;;;2.30;;
24173;SDS011;12324;48.146;11.502;2022-10-16T16:11:17;3.97;;;1.90;;
24173;SDS011;12324;48.146;11.502;2022-10-16T16:13:45;3.55;;;2.10;;
24173;SDS011;12324;48.146;11.502;2022-10-16T16:16:13;8.13;;;3.67;;
24173;SDS011;12324;48.146;11.502;2022-10-16T16:18:40;6.63;;;2.90;;
24173;SDS011;12324;48.146;11.502;2022-10-16T16:21:09;6.30;;;2.20;;
24173;SDS011;12324;48.146;11.502;2022-10-16T16:23:37;5.15;;;2.55;;
24173;SDS011;12324;48.146;11.502;2022-10-16T16:26:14;4.78;;;2.08;;
24173;SDS011;12324;48.146;11.502;2022-10-16T16:28:42;5.30;;;2.58;;
24173;SDS011;12324;48.146;11.502;2022-10-16T16:31:09;4.10;;;1.95;;
24173;SDS011;12324;48.146;11.502;2022-10-16T16:33:36;3.55;;;1.67;;
24173;SDS011;12324;48.146;11.502;2022-10-16T16:36:04;3.30;;;1.83;;
24173;SDS011;12324;48.146;11.502;2022-10-16T16:38:39;7.63;;;2.70;;
24173;SDS011;12324;48.146;11.502;2022-10-16T16:41:19;4.28;;;2.20;;